sensor_id;sensor_type;location;lat;lon;timestamp;pressure;altitude;pressure_sealevel;temperature;humidity
38038;BME280;23843;51.320;12.340;2023-07-20T00:01:08;99988.13;;;17.78;100.00
38038;BME280;23843;51.320;12.340;2023-07-20T00:03:34;99987.88;;;17.81;100.00
38038;BME280;23843;51.320;12.340;2023-07-20T00:06:01;99987.88;;;17.81;100.00
38038;BME280;23843;51.320;12.340;2023-07-20T00:08:28;99987.97;;;17.80;100.00
38038;BME280;23843;51.320;12.340;2023-07-20T00:11:06;99971.78;;;17.81;100.00
38038;BME280;23843;51.320;12.340;2023-07-20T00:13:32;99980.53;;;17.83;100.00
38038;BME280;23843;51.320;12.340;2023-07-20T00:15:58;99983.22;;;17.83;100.00
38038;BME280;23843;51.320;12.340;2023-07-20T00:18:24;99979.69;;;17.83;100.00
38038;BME280;23843;51.320;12.340;2023-07-20T00:20:49;99986.88;;;17.82;100.00
38038;BME280;23843;51.320;12.340;2023-07-20T00:23:16;99989.81;;;17.79;100.00
38038;BME280;23843;51.320;12.340;2023-07-20T00:25:42;99993.31;;;17.80;100.00
38038;BME280;23843;51.320;12.340;2023-07-20T00:28:08;99985.19;;;17.81;100.00
38038;BME280;23843;51.320;12.340;2023-07-20T00:30:33;99977.16;;;17.81;100.00
38038;BME280;23843;51.320;12.340;2023-07-20T00:32:59;99979.84;;;17.81;100.00
38038;BME280;23843;51.320;12.340;2023-07-20T00:35:27;99980.84;;;17.80;100.00
38038;BME280;23843;51.320;12.340;2023-07-20T00:37:53;99978.16;;;17.80;100.00
38038;BME280;23843;51.320;12.340;2023-07-20T00:40:20;99964.75;;;17.80;100.00
38038;BME280;23843;51.320;12.340;2023-07-20T00:42:46;99969.38;;;17.78;100.00
38038;BME280;23843;51.320;12.340;2023-07-20T00:45:12;99974.56;;;17.80;100.00
38038;BME280;23843;51.320;12.340;2023-07-20T00:47:38;99975.56;;;17.79;100.00
38038;BME280;23843;51.320;12.340;2023-07-20T00:50:05;99964.97;;;17.77;100.00
38038;BME280;23843;51.320;12.340;2023-07-20T00:52:32;99972.34;;;17.85;100.00
38038;BME280;23843;51.320;12.340;2023-07-20T00:54:59;99978.72;;;17.84;100.00
38038;BME280;23843;51.320;12.340;2023-07-20T00:57:26;99982.22;;;17.84;100.00
38038;BME280;23843;51.320;12.340;2023-07-20T00:59:53;99978.00;;;17.82;100.00
38038;BME280;23843;51.320;12.340;2023-07-20T01:02:20;99971.78;;;17.81;100.00
38038;BME280;23843;51.320;12.340;2023-07-20T01:04:47;99969.81;;;17.83;100.00
38038;BME280;23843;51.320;12.340;2023-07-20T01:07:17;99979.69;;;17.83;100.00
38038;BME280;23843;51.320;12.340;2023-07-20T01:09:53;99978.00;;;17.82;100.00
38038;BME280;23843;51.320;12.340;2023-07-20T01:12:33;99975.69;;;17.77;100.00
38038;BME280;23843;51.320;12.340;2023-07-20T01:15:01;99978.53;;;17.75;100.00
38038;BME280;23843;51.320;12.340;2023-07-20T01:17:27;99976.97;;;17.73;100.00
38038;BME280;23843;51.320;12.340;2023-07-20T01:19:53;99969.47;;;17.67;100.00
38038;BME280;23843;51.320;12.340;2023-07-20T01:22:33;99964.69;;;17.61;100.00
38038;BME280;23843;51.320;12.340;2023-07-20T01:25:15;99960.16;;;17.51;100.00
38038;BME280;23843;51.320;12.340;2023-07-20T01:31:14;99960.97;;;17.42;100.00
38038;BME280;23843;51.320;12.340;2023-07-20T01:33:41;99966.31;;;17.42;100.00
38038;BME280;23843;51.320;12.340;2023-07-20T01:36:30;99966.00;;;17.36;100.00
38038;BME280;23843;51.320;12.340;2023-07-20T01:39:00;99961.34;;;17.28;100.00
38038;BME280;23843;51.320;12.340;2023-07-20T01:41:46;99967.25;;;17.22;100.00
38038;BME280;23843;51.320;12.340;2023-07-20T01:44:14;99969.94;;;17.22;100.00
38038;BME280;23843;51.320;12.340;2023-07-20T01:46:54;99963.00;;;17.19;100.00
38038;BME280;23843;51.320;12.340;2023-07-20T01:49:39;99964.56;;;17.22;100.00
38038;BME280;23843;51.320;12.340;2023-07-20T01:52:06;99963.25;;;17.16;100.00
38038;BME280;23843;51.320;12.340;2023-07-20T01:54:52;99969.28;;;17.08;100.00
38038;BME280;23843;51.320;12.340;2023-07-20T01:57:37;99970.69;;;17.03;100.00
38038;BME280;23843;51.320;12.340;2023-07-20T02:00:22;99965.59;;;17.00;100.00
38038;BME280;23843;51.320;12.340;2023-07-20T02:03:09;99966.97;;;16.94;100.00
38038;BME280;23843;51.320;12.340;2023-07-20T02:05:36;99972.72;;;16.89;100.00
38038;BME280;23843;51.320;12.340;2023-07-20T02:08:21;99981.28;;;16.83;100.00
38038;BME280;23843;51.320;12.340;2023-07-20T02:11:07;99981.41;;;16.82;100.00
38038;BME280;23843;51.320;12.340;2023-07-20T02:13:32;99979.00;;;16.79;100.00
38038;BME280;23843;51.320;12.340;2023-07-20T02:15:58;99980.94;;;16.77;100.00
38038;BME280;23843;51.320;12.340;2023-07-20T02:18:25;99985.56;;;16.75;100.00
38038;BME280;23843;51.320;12.340;2023-07-20T02:20:54;99983.88;;;16.74;100.00
38038;BME280;23843;51.320;12.340;2023-07-20T02:23:19;99984.72;;;16.74;100.00
38038;BME280;23843;51.320;12.340;2023-07-20T02:25:45;99988.38;;;16.73;100.00
38038;BME280;23843;51.320;12.340;2023-07-20T02:28:14;99988.94;;;16.77;100.00
38038;BME280;23843;51.320;12.340;2023-07-20T02:30:40;99992.84;;;16.84;100.00
38038;BME280;23843;51.320;12.340;2023-07-20T02:33:07;99989.88;;;16.87;100.00
38038;BME280;23843;51.320;12.340;2023-07-20T02:35:34;99992.03;;;16.93;100.00
38038;BME280;23843;51.320;12.340;2023-07-20T02:38:00;99984.72;;;16.95;100.00
38038;BME280;23843;51.320;12.340;2023-07-20T02:40:26;99997.84;;;16.98;100.00
38038;BME280;23843;51.320;12.340;2023-07-20T02:42:51;99988.97;;;16.98;100.00
38038;BME280;23843;51.320;12.340;2023-07-20T02:45:17;100002.47;;;16.96;100.00
38038;BME280;23843;51.320;12.340;2023-07-20T02:47:43;99999.91;;;16.95;100.00
38038;BME280;23843;51.320;12.340;2023-07-20T02:50:10;100001.50;;;16.97;100.00
38038;BME280;23843;51.320;12.340;2023-07-20T02:52:39;100008.53;;;16.98;100.00
38038;BME280;23843;51.320;12.340;2023-07-20T02:55:06;100007.56;;;16.99;100.00
38038;BME280;23843;51.320;12.340;2023-07-20T02:57:32;100002.19;;;16.99;100.00
38038;BME280;23843;51.320;12.340;2023-07-20T02:59:57;100011.09;;;17.00;100.00
38038;BME280;23843;51.320;12.340;2023-07-20T03:02:28;100009.00;;;17.03;100.00
38038;BME280;23843;51.320;12.340;2023-07-20T03:04:54;100012.38;;;17.05;100.00
38038;BME280;23843;51.320;12.340;2023-07-20T03:07:19;100008.47;;;17.09;100.00
38038;BME280;23843;51.320;12.340;2023-07-20T03:09:49;100010.59;;;17.16;100.00
38038;BME280;23843;51.320;12.340;2023-07-20T03:12:17;100004.72;;;17.22;100.00
38038;BME280;23843;51.320;12.340;2023-07-20T03:14:43;100012.47;;;17.25;100.00
38038;BME280;23843;51.320;12.340;2023-07-20T03:17:09;100018.41;;;17.28;100.00
38038;BME280;23843;51.320;12.340;2023-07-20T03:19:35;100018.28;;;17.30;100.00
38038;BME280;23843;51.320;12.340;2023-07-20T03:22:00;100014.59;;;17.31;100.00
38038;BME280;23843;51.320;12.340;2023-07-20T03:24:26;100009.41;;;17.29;100.00
38038;BME280;23843;51.320;12.340;2023-07-20T03:26:54;100006.84;;;17.28;100.00
38038;BME280;23843;51.320;12.340;2023-07-20T03:29:20;99998.09;;;17.26;100.00
38038;BME280;23843;51.320;12.340;2023-07-20T03:31:47;100010.53;;;17.27;100.00
38038;BME280;23843;51.320;12.340;2023-07-20T03:34:12;100012.19;;;17.28;100.00
38038;BME280;23843;51.320;12.340;2023-07-20T03:36:39;100008.56;;;17.29;100.00
38038;BME280;23843;51.320;12.340;2023-07-20T03:39:24;100006.84;;;17.28;100.00
38038;BME280;23843;51.320;12.340;2023-07-20T03:42:03;100016.44;;;17.30;100.00
38038;BME280;23843;51.320;12.340;2023-07-20T03:44:48;100023.50;;;17.31;100.00
38038;BME280;23843;51.320;12.340;2023-07-20T03:47:14;100029.44;;;17.35;100.00
38038;BME280;23843;51.320;12.340;2023-07-20T03:50:00;100029.16;;;17.38;100.00
38038;BME280;23843;51.320;12.340;2023-07-20T03:52:45;100036.94;;;17.41;100.00
38038;BME280;23843;51.320;12.340;2023-07-20T03:55:11;100033.25;;;17.42;100.00
38038;BME280;23843;51.320;12.340;2023-07-20T03:58:01;100036.78;;;17.43;100.00
38038;BME280;23843;51.320;12.340;2023-07-20T04:00:30;100030.31;;;17.45;100.00
38038;BME280;23843;51.320;12.340;2023-07-20T04:03:16;100045.13;;;17.49;100.00
38038;BME280;23843;51.320;12.340;2023-07-20T04:05:58;100043.63;;;17.57;100.00
38038;BME280;23843;51.320;12.340;2023-07-20T04:08:23;100039.09;;;17.57;100.00
38038;BME280;23843;51.320;12.340;2023-07-20T04:11:11;100044.16;;;17.60;100.00
38038;BME280;23843;51.320;12.340;2023-07-20T04:13:58;100026.97;;;17.63;100.00
38038;BME280;23843;51.320;12.340;2023-07-20T04:16:46;100034.06;;;17.64;100.00
38038;BME280;23843;51.320;12.340;2023-07-20T04:19:31;100031.50;;;17.62;100.00
38038;BME280;23843;51.320;12.340;2023-07-20T04:22:17;100037.69;;;17.63;100.00
38038;BME280;23843;51.320;12.340;2023-07-20T04:25:03;100043.50;;;17.68;100.00
38038;BME280;23843;51.320;12.340;2023-07-20T04:27:49;100034.34;;;17.70;100.00
38038;BME280;23843;51.320;12.340;2023-07-20T04:30:36;100040.81;;;17.68;100.00
38038;BME280;23843;51.320;12.340;2023-07-20T04:33:22;100048.16;;;17.66;100.00
38038;BME280;23843;51.320;12.340;2023-07-20T04:36:26;100036.44;;;17.67;100.00
38038;BME280;23843;51.320;12.340;2023-07-20T04:39:12;100047.88;;;17.69;100.00
38038;BME280;23843;51.320;12.340;2023-07-20T04:41:57;100049.56;;;17.70;100.00
38038;BME280;23843;51.320;12.340;2023-07-20T04:44:43;100045.91;;;17.71;100.00
38038;BME280;23843;51.320;12.340;2023-07-20T04:47:30;100037.72;;;17.72;100.00
38038;BME280;23843;51.320;12.340;2023-07-20T04:50:15;100049.16;;;17.74;100.00
38038;BME280;23843;51.320;12.340;2023-07-20T04:53:01;100050.72;;;17.77;100.00
38038;BME280;23843;51.320;12.340;2023-07-20T04:55:48;100046.69;;;17.83;100.00
38038;BME280;23843;51.320;12.340;2023-07-20T04:58:33;100048.94;;;17.87;100.00
38038;BME280;23843;51.320;12.340;2023-07-20T05:01:19;100047.97;;;17.88;100.00
38038;BME280;23843;51.320;12.340;2023-07-20T05:04:06;100054.47;;;17.95;100.00
38038;BME280;23843;51.320;12.340;2023-07-20T05:06:51;100048.81;;;17.99;100.00
38038;BME280;23843;51.320;12.340;2023-07-20T05:09:37;100059.00;;;18.05;100.00
38038;BME280;23843;51.320;12.340;2023-07-20T05:12:22;100057.00;;;18.07;100.00
38038;BME280;23843;51.320;12.340;2023-07-20T05:15:09;100062.13;;;18.10;100.00
38038;BME280;23843;51.320;12.340;2023-07-20T05:17:55;100060.00;;;18.13;100.00
38038;BME280;23843;51.320;12.340;2023-07-20T05:20:47;100058.75;;;18.27;100.00
38038;BME280;23843;51.320;12.340;2023-07-20T05:23:13;100053.94;;;18.31;100.00
38038;BME280;23843;51.320;12.340;2023-07-20T05:25:41;100059.88;;;18.34;100.00
38038;BME280;23843;51.320;12.340;2023-07-20T05:28:08;100055.66;;;18.32;100.00
38038;BME280;23843;51.320;12.340;2023-07-20T05:30:54;100061.28;;;18.38;100.00
38038;BME280;23843;51.320;12.340;2023-07-20T05:33:37;100061.03;;;18.42;100.00
38038;BME280;23843;51.320;12.340;2023-07-20T05:36:04;100062.41;;;18.46;100.00
38038;BME280;23843;51.320;12.340;2023-07-20T05:38:30;100071.16;;;18.48;100.00
38038;BME280;23843;51.320;12.340;2023-07-20T05:41:14;100068.22;;;18.51;100.00
38038;BME280;23843;51.320;12.340;2023-07-20T05:43:44;100066.22;;;18.53;100.00
38038;BME280;23843;51.320;12.340;2023-07-20T05:46:29;100070.91;;;18.51;100.00
38038;BME280;23843;51.320;12.340;2023-07-20T05:48:57;100068.91;;;18.53;100.00
38038;BME280;23843;51.320;12.340;2023-07-20T05:51:43;100064.41;;;18.63;100.00
38038;BME280;23843;51.320;12.340;2023-07-20T05:54:10;100070.47;;;18.94;100.00
38038;BME280;23843;51.320;12.340;2023-07-20T05:56:55;100074.50;;;20.02;100.00
38038;BME280;23843;51.320;12.340;2023-07-20T05:59:21;100071.69;;;20.58;100.00
38038;BME280;23843;51.320;12.340;2023-07-20T06:02:07;100067.06;;;20.86;100.00
38038;BME280;23843;51.320;12.340;2023-07-20T06:04:33;100072.13;;;20.89;100.00
38038;BME280;23843;51.320;12.340;2023-07-20T06:07:12;100067.16;;;20.76;100.00
38038;BME280;23843;51.320;12.340;2023-07-20T06:09:54;100075.53;;;20.55;100.00
38038;BME280;23843;51.320;12.340;2023-07-20T06:12:28;100070.19;;;20.45;100.00
38038;BME280;23843;51.320;12.340;2023-07-20T06:14:54;100070.44;;;20.34;100.00
38038;BME280;23843;51.320;12.340;2023-07-20T06:17:29;100073.03;;;20.26;100.00
38038;BME280;23843;51.320;12.340;2023-07-20T06:20:14;100077.25;;;20.10;100.00
38038;BME280;23843;51.320;12.340;2023-07-20T06:22:44;100074.09;;;19.97;100.00
38038;BME280;23843;51.320;12.340;2023-07-20T06:25:29;100073.28;;;20.15;100.00
38038;BME280;23843;51.320;12.340;2023-07-20T06:28:06;100073.59;;;20.83;100.00
38038;BME280;23843;51.320;12.340;2023-07-20T06:30:45;100065.28;;;21.47;100.00
38038;BME280;23843;51.320;12.340;2023-07-20T06:33:20;100060.66;;;21.65;100.00
38038;BME280;23843;51.320;12.340;2023-07-20T06:36:05;100059.88;;;22.48;96.28
38038;BME280;23843;51.320;12.340;2023-07-20T06:38:45;100059.22;;;22.38;94.99
38038;BME280;23843;51.320;12.340;2023-07-20T06:41:31;100067.69;;;22.76;87.65
38038;BME280;23843;51.320;12.340;2023-07-20T06:44:14;100071.56;;;22.49;87.55
38038;BME280;23843;51.320;12.340;2023-07-20T06:46:49;100077.06;;;22.31;86.17
38038;BME280;23843;51.320;12.340;2023-07-20T06:49:24;100078.34;;;22.10;88.73
38038;BME280;23843;51.320;12.340;2023-07-20T06:51:51;100085.06;;;21.98;89.16
38038;BME280;23843;51.320;12.340;2023-07-20T06:54:18;100075.69;;;23.49;88.86
38038;BME280;23843;51.320;12.340;2023-07-20T06:57:05;100079.13;;;23.27;84.58
38038;BME280;23843;51.320;12.340;2023-07-20T06:59:33;100078.09;;;23.28;81.65
38038;BME280;23843;51.320;12.340;2023-07-20T07:02:19;100071.22;;;22.93;84.35
38038;BME280;23843;51.320;12.340;2023-07-20T07:04:45;100068.66;;;22.50;83.09
38038;BME280;23843;51.320;12.340;2023-07-20T07:07:30;100056.78;;;22.18;85.30
38038;BME280;23843;51.320;12.340;2023-07-20T07:10:07;100064.16;;;22.00;86.37
38038;BME280;23843;51.320;12.340;2023-07-20T07:12:50;100053.47;;;21.82;85.45
38038;BME280;23843;51.320;12.340;2023-07-20T07:15:35;100058.94;;;21.56;89.17
38038;BME280;23843;51.320;12.340;2023-07-20T07:18:20;100074.69;;;21.43;89.70
38038;BME280;23843;51.320;12.340;2023-07-20T07:20:59;100065.84;;;22.09;91.12
38038;BME280;23843;51.320;12.340;2023-07-20T07:23:45;100069.38;;;22.01;86.73
38038;BME280;23843;51.320;12.340;2023-07-20T07:26:32;100075.22;;;21.80;85.75
38038;BME280;23843;51.320;12.340;2023-07-20T07:29:04;100067.41;;;21.69;86.76
38038;BME280;23843;51.320;12.340;2023-07-20T07:31:50;100078.31;;;21.59;87.67
38038;BME280;23843;51.320;12.340;2023-07-20T07:34:32;100086.00;;;21.46;89.31
38038;BME280;23843;51.320;12.340;2023-07-20T07:36:58;100088.84;;;21.45;91.18
38038;BME280;23843;51.320;12.340;2023-07-20T07:39:43;100092.88;;;21.41;90.82
38038;BME280;23843;51.320;12.340;2023-07-20T07:42:30;100091.09;;;21.49;89.13
38038;BME280;23843;51.320;12.340;2023-07-20T07:45:16;100088.78;;;21.63;92.20
38038;BME280;23843;51.320;12.340;2023-07-20T07:48:01;100086.22;;;21.95;90.18
38038;BME280;23843;51.320;12.340;2023-07-20T07:50:47;100094.16;;;22.72;85.47
38038;BME280;23843;51.320;12.340;2023-07-20T07:53:32;100086.09;;;22.80;83.19
38038;BME280;23843;51.320;12.340;2023-07-20T07:56:18;100085.56;;;22.93;84.65
38038;BME280;23843;51.320;12.340;2023-07-20T07:59:04;100078.31;;;23.10;83.42
38038;BME280;23843;51.320;12.340;2023-07-20T08:01:50;100089.81;;;23.12;79.60
38038;BME280;23843;51.320;12.340;2023-07-20T08:04:36;100089.94;;;22.94;78.61
38038;BME280;23843;51.320;12.340;2023-07-20T08:07:21;100087.41;;;22.60;79.67
38038;BME280;23843;51.320;12.340;2023-07-20T08:10:07;100085.84;;;22.41;81.53
38038;BME280;23843;51.320;12.340;2023-07-20T08:12:53;100086.22;;;22.54;85.32
38038;BME280;23843;51.320;12.340;2023-07-20T08:15:45;100089.94;;;22.61;83.66
38038;BME280;23843;51.320;12.340;2023-07-20T08:18:33;100097.88;;;22.47;80.73
38038;BME280;23843;51.320;12.340;2023-07-20T08:21:19;100096.63;;;22.25;80.53
38038;BME280;23843;51.320;12.340;2023-07-20T08:24:05;100095.47;;;22.27;82.11
38038;BME280;23843;51.320;12.340;2023-07-20T08:26:51;100095.81;;;22.32;83.92
38038;BME280;23843;51.320;12.340;2023-07-20T08:29:36;100106.31;;;22.43;82.20
38038;BME280;23843;51.320;12.340;2023-07-20T08:32:24;100099.72;;;22.46;80.90
38038;BME280;23843;51.320;12.340;2023-07-20T08:35:10;100094.13;;;22.48;82.00
38038;BME280;23843;51.320;12.340;2023-07-20T08:37:55;100089.56;;;22.40;79.63
38038;BME280;23843;51.320;12.340;2023-07-20T08:40:42;100091.00;;;22.18;80.20
38038;BME280;23843;51.320;12.340;2023-07-20T08:43:28;100092.94;;;22.34;79.82
38038;BME280;23843;51.320;12.340;2023-07-20T08:46:14;100094.00;;;23.23;78.31
38038;BME280;23843;51.320;12.340;2023-07-20T08:49:02;100092.00;;;24.43;78.75
38038;BME280;23843;51.320;12.340;2023-07-20T08:51:48;100085.63;;;26.82;74.06
38038;BME280;23843;51.320;12.340;2023-07-20T08:54:34;100085.19;;;29.32;66.15
38038;BME280;23843;51.320;12.340;2023-07-20T08:57:21;100077.81;;;30.56;51.37
38038;BME280;23843;51.320;12.340;2023-07-20T09:00:08;100080.84;;;30.41;47.06
38038;BME280;23843;51.320;12.340;2023-07-20T09:02:54;100080.81;;;30.03;46.63
38038;BME280;23843;51.320;12.340;2023-07-20T09:05:42;100091.28;;;29.21;45.23
38038;BME280;23843;51.320;12.340;2023-07-20T09:08:27;100081.22;;;29.41;44.52
38038;BME280;23843;51.320;12.340;2023-07-20T09:11:14;100074.50;;;29.37;47.92
38038;BME280;23843;51.320;12.340;2023-07-20T09:14:04;100078.28;;;28.83;44.00
38038;BME280;23843;51.320;12.340;2023-07-20T09:16:51;100075.81;;;28.13;45.33
38038;BME280;23843;51.320;12.340;2023-07-20T09:19:37;100067.50;;;27.17;47.83
38038;BME280;23843;51.320;12.340;2023-07-20T09:22:29;100057.88;;;26.65;49.25
38038;BME280;23843;51.320;12.340;2023-07-20T09:25:16;100066.03;;;26.07;49.64
38038;BME280;23843;51.320;12.340;2023-07-20T09:28:02;100072.41;;;25.84;57.50
38038;BME280;23843;51.320;12.340;2023-07-20T09:30:48;100073.84;;;25.95;58.75
38038;BME280;23843;51.320;12.340;2023-07-20T09:33:38;100075.34;;;25.53;53.83
38038;BME280;23843;51.320;12.340;2023-07-20T09:36:26;100082.09;;;25.05;55.02
38038;BME280;23843;51.320;12.340;2023-07-20T09:39:16;100083.75;;;24.68;58.48
38038;BME280;23843;51.320;12.340;2023-07-20T09:42:01;100076.19;;;24.32;61.00
38038;BME280;23843;51.320;12.340;2023-07-20T09:44:47;100089.38;;;24.04;62.63
38038;BME280;23843;51.320;12.340;2023-07-20T09:47:35;100099.81;;;23.76;64.47
38038;BME280;23843;51.320;12.340;2023-07-20T09:50:23;100128.34;;;23.70;67.45
38038;BME280;23843;51.320;12.340;2023-07-20T09:53:11;100136.72;;;23.44;73.64
38038;BME280;23843;51.320;12.340;2023-07-20T09:55:58;100134.88;;;23.03;78.88
38038;BME280;23843;51.320;12.340;2023-07-20T09:58:45;100134.16;;;22.69;83.91
38038;BME280;23843;51.320;12.340;2023-07-20T10:01:32;100139.53;;;22.44;83.06
38038;BME280;23843;51.320;12.340;2023-07-20T10:04:21;100133.56;;;22.24;83.95
38038;BME280;23843;51.320;12.340;2023-07-20T10:07:10;100131.97;;;22.13;86.21
38038;BME280;23843;51.320;12.340;2023-07-20T10:09:56;100131.91;;;21.97;91.97
38038;BME280;23843;51.320;12.340;2023-07-20T10:12:47;100135.00;;;22.02;94.93
38038;BME280;23843;51.320;12.340;2023-07-20T10:15:36;100141.59;;;22.16;92.42
38038;BME280;23843;51.320;12.340;2023-07-20T10:18:27;100139.50;;;22.36;91.42
38038;BME280;23843;51.320;12.340;2023-07-20T10:21:17;100141.19;;;22.45;91.83
38038;BME280;23843;51.320;12.340;2023-07-20T10:24:04;100141.25;;;22.61;89.98
38038;BME280;23843;51.320;12.340;2023-07-20T10:26:50;100141.06;;;22.55;89.29
38038;BME280;23843;51.320;12.340;2023-07-20T10:29:39;100146.09;;;22.41;92.33
38038;BME280;23843;51.320;12.340;2023-07-20T10:32:25;100151.03;;;22.12;91.20
38038;BME280;23843;51.320;12.340;2023-07-20T10:35:15;100151.66;;;21.97;92.65
38038;BME280;23843;51.320;12.340;2023-07-20T10:38:02;100150.44;;;21.92;94.17
38038;BME280;23843;51.320;12.340;2023-07-20T10:40:54;100146.84;;;21.83;97.62
38038;BME280;23843;51.320;12.340;2023-07-20T10:43:42;100141.41;;;21.75;96.58
38038;BME280;23843;51.320;12.340;2023-07-20T10:46:42;100150.88;;;21.79;98.63
38038;BME280;23843;51.320;12.340;2023-07-20T10:49:28;100152.13;;;21.93;94.06
38038;BME280;23843;51.320;12.340;2023-07-20T10:52:14;100137.13;;;22.25;93.26
38038;BME280;23843;51.320;12.340;2023-07-20T10:55:10;100140.56;;;22.59;91.99
38038;BME280;23843;51.320;12.340;2023-07-20T10:58:09;100132.69;;;22.99;88.63
38038;BME280;23843;51.320;12.340;2023-07-20T11:00:57;100129.13;;;23.06;85.73
38038;BME280;23843;51.320;12.340;2023-07-20T11:03:48;100123.75;;;23.15;85.27
38038;BME280;23843;51.320;12.340;2023-07-20T11:06:34;100126.09;;;23.34;86.19
38038;BME280;23843;51.320;12.340;2023-07-20T11:09:22;100128.03;;;23.65;84.89
38038;BME280;23843;51.320;12.340;2023-07-20T11:12:12;100128.03;;;23.81;81.90
38038;BME280;23843;51.320;12.340;2023-07-20T11:14:58;100133.84;;;24.01;83.19
38038;BME280;23843;51.320;12.340;2023-07-20T11:17:43;100139.25;;;24.09;82.20
38038;BME280;23843;51.320;12.340;2023-07-20T11:20:30;100145.66;;;24.08;81.95
38038;BME280;23843;51.320;12.340;2023-07-20T11:23:16;100139.13;;;23.95;82.09
38038;BME280;23843;51.320;12.340;2023-07-20T11:26:01;100149.50;;;23.66;81.01
38038;BME280;23843;51.320;12.340;2023-07-20T11:28:48;100148.03;;;23.47;82.54
38038;BME280;23843;51.320;12.340;2023-07-20T11:31:38;100146.53;;;23.20;84.98
38038;BME280;23843;51.320;12.340;2023-07-20T11:34:24;100149.56;;;23.25;87.46
38038;BME280;23843;51.320;12.340;2023-07-20T11:37:11;100153.13;;;23.34;85.93
38038;BME280;23843;51.320;12.340;2023-07-20T11:39:56;100149.03;;;23.46;85.93
38038;BME280;23843;51.320;12.340;2023-07-20T11:42:42;100158.84;;;23.31;84.47
38038;BME280;23843;51.320;12.340;2023-07-20T11:45:28;100157.69;;;23.25;86.64
38038;BME280;23843;51.320;12.340;2023-07-20T11:48:17;100153.78;;;23.12;87.72
38038;BME280;23843;51.320;12.340;2023-07-20T11:51:02;100162.41;;;23.15;86.56
38038;BME280;23843;51.320;12.340;2023-07-20T11:53:49;100161.06;;;23.19;84.43
38038;BME280;23843;51.320;12.340;2023-07-20T11:56:35;100156.50;;;23.20;82.61
38038;BME280;23843;51.320;12.340;2023-07-20T11:59:20;100161.22;;;23.18;84.55
38038;BME280;23843;51.320;12.340;2023-07-20T12:02:06;100157.84;;;23.16;83.72
38038;BME280;23843;51.320;12.340;2023-07-20T12:04:51;100156.16;;;23.06;84.32
38038;BME280;23843;51.320;12.340;2023-07-20T12:07:37;100152.63;;;23.14;86.75
38038;BME280;23843;51.320;12.340;2023-07-20T12:10:28;100151.09;;;23.03;88.88
38038;BME280;23843;51.320;12.340;2023-07-20T12:13:13;100149.91;;;23.06;87.76
38038;BME280;23843;51.320;12.340;2023-07-20T12:16:06;100157.34;;;23.04;87.19
38038;BME280;23843;51.320;12.340;2023-07-20T12:18:59;100160.91;;;23.04;87.59
38038;BME280;23843;51.320;12.340;2023-07-20T12:21:45;100159.19;;;23.12;88.57
38038;BME280;23843;51.320;12.340;2023-07-20T12:24:30;100164.78;;;23.18;88.50
38038;BME280;23843;51.320;12.340;2023-07-20T12:27:17;100160.84;;;23.45;88.53
38038;BME280;23843;51.320;12.340;2023-07-20T12:30:03;100166.75;;;23.65;86.18
38038;BME280;23843;51.320;12.340;2023-07-20T12:32:49;100163.69;;;23.77;84.68
38038;BME280;23843;51.320;12.340;2023-07-20T12:35:34;100164.53;;;23.85;83.21
38038;BME280;23843;51.320;12.340;2023-07-20T12:38:20;100165.22;;;23.79;80.79
38038;BME280;23843;51.320;12.340;2023-07-20T12:41:05;100157.56;;;23.91;80.75
38038;BME280;23843;51.320;12.340;2023-07-20T12:43:52;100151.28;;;23.99;78.30
38038;BME280;23843;51.320;12.340;2023-07-20T12:46:37;100156.53;;;23.92;78.97
38038;BME280;23843;51.320;12.340;2023-07-20T12:49:23;100153.53;;;23.87;79.36
38038;BME280;23843;51.320;12.340;2023-07-20T12:52:08;100159.75;;;23.96;80.18
38038;BME280;23843;51.320;12.340;2023-07-20T12:54:54;100155.53;;;23.93;77.87
38038;BME280;23843;51.320;12.340;2023-07-20T12:57:40;100157.25;;;23.86;77.52
38038;BME280;23843;51.320;12.340;2023-07-20T13:00:27;100154.88;;;23.91;78.22
38038;BME280;23843;51.320;12.340;2023-07-20T13:03:13;100166.16;;;23.95;74.67
38038;BME280;23843;51.320;12.340;2023-07-20T13:05:59;100163.84;;;23.83;71.81
38038;BME280;23843;51.320;12.340;2023-07-20T13:08:44;100163.91;;;23.59;72.87
38038;BME280;23843;51.320;12.340;2023-07-20T13:11:30;100161.19;;;23.50;74.11
38038;BME280;23843;51.320;12.340;2023-07-20T13:14:15;100155.13;;;23.48;73.96
38038;BME280;23843;51.320;12.340;2023-07-20T13:17:02;100145.31;;;23.56;73.92
38038;BME280;23843;51.320;12.340;2023-07-20T13:19:48;100147.66;;;23.50;71.71
38038;BME280;23843;51.320;12.340;2023-07-20T13:22:33;100151.56;;;23.56;71.27
38038;BME280;23843;51.320;12.340;2023-07-20T13:25:19;100149.50;;;23.75;71.79
38038;BME280;23843;51.320;12.340;2023-07-20T13:28:05;100157.41;;;23.92;69.02
38038;BME280;23843;51.320;12.340;2023-07-20T13:30:50;100146.16;;;24.12;68.64
38038;BME280;23843;51.320;12.340;2023-07-20T13:33:37;100151.06;;;24.08;67.41
38038;BME280;23843;51.320;12.340;2023-07-20T13:36:23;100145.91;;;23.90;66.15
38038;BME280;23843;51.320;12.340;2023-07-20T13:39:08;100144.59;;;23.78;66.51
38038;BME280;23843;51.320;12.340;2023-07-20T13:41:54;100135.47;;;23.63;67.94
38038;BME280;23843;51.320;12.340;2023-07-20T13:44:40;100129.72;;;23.74;67.34
38038;BME280;23843;51.320;12.340;2023-07-20T13:47:26;100133.06;;;23.84;66.05